sensor_id;sensor_type;location;lat;lon;timestamp;pressure;altitude;pressure_sealevel;temperature;humidity
55550;BME280;41397;49.972;18.944;2023-03-15T00:01:57;100747.47;;;10.34;58.96
55550;BME280;41397;49.972;18.944;2023-03-15T00:04:58;100767.60;;;10.44;59.08
55550;BME280;41397;49.972;18.944;2023-03-15T00:08:00;100784.25;;;10.52;58.79
55550;BME280;41397;49.972;18.944;2023-03-15T00:11:02;100800.53;;;10.65;58.59
55550;BME280;41397;49.972;18.944;2023-03-15T00:14:04;100806.85;;;10.77;58.56
55550;BME280;41397;49.972;18.944;2023-03-15T00:17:06;100838.58;;;10.68;58.43
55550;BME280;41397;49.972;18.944;2023-03-15T00:20:08;100840.55;;;10.32;58.48
55550;BME280;41397;49.972;18.944;2023-03-15T00:23:12;100844.32;;;9.96;58.74
55550;BME280;41397;49.972;18.944;2023-03-15T00:26:14;100856.72;;;10.00;58.95
55550;BME280;41397;49.972;18.944;2023-03-15T00:29:17;100862.95;;;10.02;59.17
55550;BME280;41397;49.972;18.944;2023-03-15T00:32:18;100875.50;;;9.69;59.27
55550;BME280;41397;49.972;18.944;2023-03-15T00:35:21;100840.28;;;9.77;59.30
55550;BME280;41397;49.972;18.944;2023-03-15T00:38:24;100877.25;;;9.46;59.88
55550;BME280;41397;49.972;18.944;2023-03-15T00:41:25;100888.53;;;9.42;60.05
55550;BME280;41397;49.972;18.944;2023-03-15T00:44:26;100899.98;;;9.47;60.25
55550;BME280;41397;49.972;18.944;2023-03-15T00:47:29;100903.58;;;9.10;61.16
55550;BME280;41397;49.972;18.944;2023-03-15T00:50:30;100920.79;;;9.24;60.55
55550;BME280;41397;49.972;18.944;2023-03-15T00:53:33;100924.38;;;9.24;60.65
55550;BME280;41397;49.972;18.944;2023-03-15T00:56:35;100941.65;;;9.25;61.03
55550;BME280;41397;49.972;18.944;2023-03-15T00:59:36;100943.55;;;9.36;60.50
55550;BME280;41397;49.972;18.944;2023-03-15T01:02:38;100944.58;;;9.22;60.65
55550;BME280;41397;49.972;18.944;2023-03-15T01:05:40;100947.67;;;9.17;60.24
55550;BME280;41397;49.972;18.944;2023-03-15T01:08:42;100957.49;;;9.20;60.72
55550;BME280;41397;49.972;18.944;2023-03-15T01:11:44;100944.88;;;9.30;59.89
55550;BME280;41397;49.972;18.944;2023-03-15T01:14:45;100947.98;;;9.25;59.83
55550;BME280;41397;49.972;18.944;2023-03-15T01:17:47;100941.59;;;9.38;59.21
55550;BME280;41397;49.972;18.944;2023-03-15T01:20:48;100944.32;;;9.38;59.14
55550;BME280;41397;49.972;18.944;2023-03-15T01:23:50;100949.11;;;9.47;59.02
55550;BME280;41397;49.972;18.944;2023-03-15T01:26:51;100949.15;;;9.34;59.00
55550;BME280;41397;49.972;18.944;2023-03-15T01:29:54;100957.90;;;9.26;58.89
55550;BME280;41397;49.972;18.944;2023-03-15T01:32:55;100955.14;;;9.39;58.61
55550;BME280;41397;49.972;18.944;2023-03-15T01:39:05;100956.41;;;9.09;59.36
55550;BME280;41397;49.972;18.944;2023-03-15T01:42:07;100957.28;;;8.97;59.42
55550;BME280;41397;49.972;18.944;2023-03-15T01:48:26;100977.70;;;8.92;59.41
55550;BME280;41397;49.972;18.944;2023-03-15T01:51:36;100991.42;;;9.16;59.38
55550;BME280;41397;49.972;18.944;2023-03-15T01:54:43;100982.73;;;8.98;59.17
55550;BME280;41397;49.972;18.944;2023-03-15T01:57:50;100997.88;;;8.89;59.80
55550;BME280;41397;49.972;18.944;2023-03-15T02:00:56;101011.30;;;9.05;59.55
55550;BME280;41397;49.972;18.944;2023-03-15T02:04:03;101005.84;;;9.05;59.15
55550;BME280;41397;49.972;18.944;2023-03-15T02:07:09;101024.61;;;8.97;58.80
55550;BME280;41397;49.972;18.944;2023-03-15T02:10:12;101031.06;;;9.08;59.08
55550;BME280;41397;49.972;18.944;2023-03-15T02:13:17;101030.83;;;8.86;58.79
55550;BME280;41397;49.972;18.944;2023-03-15T02:16:23;101035.09;;;8.90;58.58
55550;BME280;41397;49.972;18.944;2023-03-15T02:26:11;101047.52;;;8.94;58.23
55550;BME280;41397;49.972;18.944;2023-03-15T02:29:12;101066.95;;;9.02;58.19
55550;BME280;41397;49.972;18.944;2023-03-15T02:32:13;101067.72;;;9.04;58.11
55550;BME280;41397;49.972;18.944;2023-03-15T02:35:22;101061.59;;;9.14;57.60
55550;BME280;41397;49.972;18.944;2023-03-15T02:38:23;101060.28;;;9.19;57.48
55550;BME280;41397;49.972;18.944;2023-03-15T02:41:35;101067.82;;;9.16;57.07
55550;BME280;41397;49.972;18.944;2023-03-15T02:44:38;101060.95;;;9.23;56.73
55550;BME280;41397;49.972;18.944;2023-03-15T02:47:42;101069.78;;;9.26;56.78
55550;BME280;41397;49.972;18.944;2023-03-15T02:50:44;101066.96;;;9.28;56.73
55550;BME280;41397;49.972;18.944;2023-03-15T02:53:46;101066.51;;;9.34;56.57
55550;BME280;41397;49.972;18.944;2023-03-15T02:56:48;101062.55;;;9.38;55.95
55550;BME280;41397;49.972;18.944;2023-03-15T02:59:49;101049.81;;;9.39;56.12
55550;BME280;41397;49.972;18.944;2023-03-15T03:02:51;101056.67;;;9.44;56.13
55550;BME280;41397;49.972;18.944;2023-03-15T03:05:52;101061.55;;;9.52;55.80
55550;BME280;41397;49.972;18.944;2023-03-15T03:08:54;101067.81;;;9.41;55.80
55550;BME280;41397;49.972;18.944;2023-03-15T03:11:55;101078.61;;;9.43;55.78
55550;BME280;41397;49.972;18.944;2023-03-15T03:14:57;101080.88;;;9.49;55.98
55550;BME280;41397;49.972;18.944;2023-03-15T03:17:58;101086.79;;;9.55;55.66
55550;BME280;41397;49.972;18.944;2023-03-15T03:21:01;101096.71;;;9.56;55.51
55550;BME280;41397;49.972;18.944;2023-03-15T03:24:04;101100.63;;;9.65;55.36
55550;BME280;41397;49.972;18.944;2023-03-15T03:27:05;101115.95;;;9.55;55.11
55550;BME280;41397;49.972;18.944;2023-03-15T03:30:10;101116.28;;;9.63;55.06
55550;BME280;41397;49.972;18.944;2023-03-15T03:33:12;101124.15;;;9.55;54.90
55550;BME280;41397;49.972;18.944;2023-03-15T03:36:13;101125.47;;;9.49;54.78
55550;BME280;41397;49.972;18.944;2023-03-15T03:39:15;101132.10;;;9.45;54.81
55550;BME280;41397;49.972;18.944;2023-03-15T03:42:16;101144.35;;;9.52;54.86
55550;BME280;41397;49.972;18.944;2023-03-15T03:45:17;101150.23;;;9.46;54.51
55550;BME280;41397;49.972;18.944;2023-03-15T03:48:19;101156.36;;;9.50;54.75
55550;BME280;41397;49.972;18.944;2023-03-15T03:51:20;101163.33;;;9.54;54.83
55550;BME280;41397;49.972;18.944;2023-03-15T03:54:22;101175.12;;;9.54;54.69
55550;BME280;41397;49.972;18.944;2023-03-15T03:57:24;101178.75;;;9.55;54.53
55550;BME280;41397;49.972;18.944;2023-03-15T04:00:26;101190.77;;;9.52;54.83
55550;BME280;41397;49.972;18.944;2023-03-15T04:03:28;101198.83;;;9.54;54.63
55550;BME280;41397;49.972;18.944;2023-03-15T04:06:33;101194.37;;;9.53;54.66
55550;BME280;41397;49.972;18.944;2023-03-15T04:09:34;101188.88;;;9.40;55.30
55550;BME280;41397;49.972;18.944;2023-03-15T04:12:37;101184.98;;;9.44;54.96
55550;BME280;41397;49.972;18.944;2023-03-15T04:15:39;101190.97;;;9.37;55.04
55550;BME280;41397;49.972;18.944;2023-03-15T04:18:41;101183.11;;;9.45;55.24
55550;BME280;41397;49.972;18.944;2023-03-15T04:21:42;101182.01;;;9.34;54.97
55550;BME280;41397;49.972;18.944;2023-03-15T04:24:47;101189.88;;;9.39;55.22
55550;BME280;41397;49.972;18.944;2023-03-15T04:27:51;101186.38;;;9.37;55.12
55550;BME280;41397;49.972;18.944;2023-03-15T04:31:02;101180.60;;;9.42;55.22
55550;BME280;41397;49.972;18.944;2023-03-15T04:34:04;101188.80;;;9.42;54.91
55550;BME280;41397;49.972;18.944;2023-03-15T04:37:06;101190.97;;;9.37;55.21
55550;BME280;41397;49.972;18.944;2023-03-15T04:40:08;101187.02;;;9.41;55.09
55550;BME280;41397;49.972;18.944;2023-03-15T04:43:11;101188.12;;;9.38;55.07
55550;BME280;41397;49.972;18.944;2023-03-15T04:46:12;101199.03;;;9.38;54.93
55550;BME280;41397;49.972;18.944;2023-03-15T04:49:14;101197.30;;;9.37;55.29
55550;BME280;41397;49.972;18.944;2023-03-15T04:55:37;101194.14;;;9.30;55.38
55550;BME280;41397;49.972;18.944;2023-03-15T04:58:39;101207.66;;;9.32;55.56
55550;BME280;41397;49.972;18.944;2023-03-15T05:01:40;101214.11;;;9.31;55.97
55550;BME280;41397;49.972;18.944;2023-03-15T05:04:42;101224.68;;;9.36;56.09
55550;BME280;41397;49.972;18.944;2023-03-15T05:07:43;101214.54;;;9.38;56.43
55550;BME280;41397;49.972;18.944;2023-03-15T05:10:45;101222.39;;;9.29;56.59
55550;BME280;41397;49.972;18.944;2023-03-15T05:20:34;101229.59;;;9.18;56.66
55550;BME280;41397;49.972;18.944;2023-03-15T05:23:35;101228.07;;;9.26;56.62
55550;BME280;41397;49.972;18.944;2023-03-15T05:40:56;101247.42;;;9.36;55.65
55550;BME280;41397;49.972;18.944;2023-03-15T05:44:15;101257.56;;;9.34;55.79
55550;BME280;41397;49.972;18.944;2023-03-15T05:47:17;101257.87;;;9.17;55.84
55550;BME280;41397;49.972;18.944;2023-03-15T05:50:18;101268.09;;;9.13;56.37
55550;BME280;41397;49.972;18.944;2023-03-15T05:53:20;101273.34;;;9.16;56.11
55550;BME280;41397;49.972;18.944;2023-03-15T05:56:21;101268.43;;;9.21;55.84
55550;BME280;41397;49.972;18.944;2023-03-15T05:59:23;101277.20;;;9.26;55.79
55550;BME280;41397;49.972;18.944;2023-03-15T06:02:24;101276.33;;;9.26;55.35
55550;BME280;41397;49.972;18.944;2023-03-15T06:05:26;101284.30;;;9.29;55.67
55550;BME280;41397;49.972;18.944;2023-03-15T06:08:28;101296.94;;;9.17;56.07
55550;BME280;41397;49.972;18.944;2023-03-15T06:11:38;101307.07;;;9.15;55.63
55550;BME280;41397;49.972;18.944;2023-03-15T06:14:43;101311.39;;;9.05;55.62
55550;BME280;41397;49.972;18.944;2023-03-15T06:17:45;101315.82;;;8.93;55.73
55550;BME280;41397;49.972;18.944;2023-03-15T06:20:47;101320.45;;;9.05;55.79
55550;BME280;41397;49.972;18.944;2023-03-15T06:23:48;101331.07;;;9.10;55.99
55550;BME280;41397;49.972;18.944;2023-03-15T06:26:53;101337.09;;;9.15;55.38
55550;BME280;41397;49.972;18.944;2023-03-15T06:29:56;101344.85;;;9.21;55.38
55550;BME280;41397;49.972;18.944;2023-03-15T06:33:00;101346.30;;;9.27;54.91
55550;BME280;41397;49.972;18.944;2023-03-15T06:36:01;101354.27;;;9.30;55.09
55550;BME280;41397;49.972;18.944;2023-03-15T06:39:03;101361.17;;;9.36;54.76
55550;BME280;41397;49.972;18.944;2023-03-15T06:42:05;101365.66;;;9.37;54.57
55550;BME280;41397;49.972;18.944;2023-03-15T06:45:09;101373.95;;;9.35;54.29
55550;BME280;41397;49.972;18.944;2023-03-15T06:48:16;101375.08;;;9.45;54.31
55550;BME280;41397;49.972;18.944;2023-03-15T06:51:17;101377.72;;;9.47;54.11
55550;BME280;41397;49.972;18.944;2023-03-15T06:54:19;101380.46;;;9.60;54.11
55550;BME280;41397;49.972;18.944;2023-03-15T06:57:20;101387.48;;;9.64;53.96
55550;BME280;41397;49.972;18.944;2023-03-15T07:00:22;101385.92;;;9.60;53.65
55550;BME280;41397;49.972;18.944;2023-03-15T07:03:24;101385.27;;;9.56;53.90
55550;BME280;41397;49.972;18.944;2023-03-15T07:06:25;101394.24;;;9.58;53.57
55550;BME280;41397;49.972;18.944;2023-03-15T07:13:01;101397.94;;;9.57;53.46
55550;BME280;41397;49.972;18.944;2023-03-15T07:16:06;101403.88;;;9.64;52.89
55550;BME280;41397;49.972;18.944;2023-03-15T07:19:08;101403.00;;;9.63;52.88
55550;BME280;41397;49.972;18.944;2023-03-15T07:22:09;101412.48;;;9.58;52.87
55550;BME280;41397;49.972;18.944;2023-03-15T07:25:11;101403.10;;;9.62;53.39
55550;BME280;41397;49.972;18.944;2023-03-15T07:28:13;101407.16;;;9.69;52.68
55550;BME280;41397;49.972;18.944;2023-03-15T07:31:15;101414.16;;;9.73;52.63
55550;BME280;41397;49.972;18.944;2023-03-15T07:34:17;101426.30;;;9.82;52.74
55550;BME280;41397;49.972;18.944;2023-03-15T07:37:19;101436.15;;;9.84;52.23
55550;BME280;41397;49.972;18.944;2023-03-15T07:40:20;101444.47;;;9.83;52.07
55550;BME280;41397;49.972;18.944;2023-03-15T07:43:22;101439.36;;;9.91;51.73
55550;BME280;41397;49.972;18.944;2023-03-15T07:46:24;101439.61;;;9.73;51.59
55550;BME280;41397;49.972;18.944;2023-03-15T07:49:26;101443.03;;;9.77;51.62
55550;BME280;41397;49.972;18.944;2023-03-15T07:52:27;101449.00;;;9.69;51.85
55550;BME280;41397;49.972;18.944;2023-03-15T07:55:30;101444.63;;;9.67;52.12
55550;BME280;41397;49.972;18.944;2023-03-15T07:58:35;101450.18;;;9.65;51.47
55550;BME280;41397;49.972;18.944;2023-03-15T08:01:36;101455.59;;;9.80;51.58
55550;BME280;41397;49.972;18.944;2023-03-15T08:04:38;101458.13;;;9.83;51.10
55550;BME280;41397;49.972;18.944;2023-03-15T08:07:40;101470.16;;;9.93;50.96
55550;BME280;41397;49.972;18.944;2023-03-15T08:10:43;101463.09;;;10.03;50.84
55550;BME280;41397;49.972;18.944;2023-03-15T08:13:46;101465.68;;;9.92;50.10
55550;BME280;41397;49.972;18.944;2023-03-15T08:16:50;101479.84;;;10.11;50.38
55550;BME280;41397;49.972;18.944;2023-03-15T08:19:51;101491.23;;;10.18;50.46
55550;BME280;41397;49.972;18.944;2023-03-15T08:22:53;101496.34;;;10.37;50.19
55550;BME280;41397;49.972;18.944;2023-03-15T08:25:55;101495.90;;;10.43;50.38
55550;BME280;41397;49.972;18.944;2023-03-15T08:28:58;101498.84;;;10.53;49.55
55550;BME280;41397;49.972;18.944;2023-03-15T08:31:59;101509.60;;;10.56;48.86
55550;BME280;41397;49.972;18.944;2023-03-15T08:35:01;101501.80;;;10.50;48.58
55550;BME280;41397;49.972;18.944;2023-03-15T08:38:02;101489.88;;;10.63;49.09
55550;BME280;41397;49.972;18.944;2023-03-15T08:41:04;101501.73;;;10.64;49.48
55550;BME280;41397;49.972;18.944;2023-03-15T08:44:06;101506.98;;;10.67;48.69
55550;BME280;41397;49.972;18.944;2023-03-15T08:47:08;101509.83;;;10.78;49.18
55550;BME280;41397;49.972;18.944;2023-03-15T08:50:13;101510.47;;;10.82;48.51
55550;BME280;41397;49.972;18.944;2023-03-15T08:53:15;101509.83;;;10.78;48.04
55550;BME280;41397;49.972;18.944;2023-03-15T08:56:17;101514.75;;;10.73;48.14
55550;BME280;41397;49.972;18.944;2023-03-15T08:59:19;101510.78;;;10.77;48.29
55550;BME280;41397;49.972;18.944;2023-03-15T09:02:21;101512.20;;;10.83;47.69
55550;BME280;41397;49.972;18.944;2023-03-15T09:05:29;101517.59;;;10.84;47.87
55550;BME280;41397;49.972;18.944;2023-03-15T09:08:31;101522.41;;;10.81;47.38
55550;BME280;41397;49.972;18.944;2023-03-15T09:11:35;101534.09;;;10.83;47.69
55550;BME280;41397;49.972;18.944;2023-03-15T09:14:36;101527.75;;;10.82;47.61
55550;BME280;41397;49.972;18.944;2023-03-15T09:17:38;101527.75;;;10.82;46.43
55550;BME280;41397;49.972;18.944;2023-03-15T09:20:40;101528.96;;;10.65;46.76
55550;BME280;41397;49.972;18.944;2023-03-15T09:23:43;101536.45;;;10.36;46.55
55550;BME280;41397;49.972;18.944;2023-03-15T09:26:44;101531.35;;;10.57;47.00
55550;BME280;41397;49.972;18.944;2023-03-15T09:29:46;101539.02;;;10.65;46.58
55550;BME280;41397;49.972;18.944;2023-03-15T09:32:48;101535.22;;;10.80;46.55
55550;BME280;41397;49.972;18.944;2023-03-15T09:35:52;101551.73;;;10.79;46.66
55550;BME280;41397;49.972;18.944;2023-03-15T09:38:53;101538.83;;;10.81;45.89
55550;BME280;41397;49.972;18.944;2023-03-15T09:41:56;101539.14;;;10.76;45.84
55550;BME280;41397;49.972;18.944;2023-03-15T09:45:12;101539.80;;;10.80;46.52
55550;BME280;41397;49.972;18.944;2023-03-15T09:48:23;101533.78;;;11.00;57.43
55550;BME280;41397;49.972;18.944;2023-03-15T09:51:37;101540.45;;;11.09;46.35
55550;BME280;41397;49.972;18.944;2023-03-15T09:54:48;101547.89;;;11.07;46.26
55550;BME280;41397;49.972;18.944;2023-03-15T10:01:34;101564.08;;;10.72;46.69
55550;BME280;41397;49.972;18.944;2023-03-15T10:04:36;101564.63;;;10.77;46.57
55550;BME280;41397;49.972;18.944;2023-03-15T10:07:42;101554.90;;;10.85;46.46
55550;BME280;41397;49.972;18.944;2023-03-15T10:10:50;101568.79;;;10.82;45.45
55550;BME280;41397;49.972;18.944;2023-03-15T10:17:11;101569.46;;;10.99;46.18
55550;BME280;41397;49.972;18.944;2023-03-15T10:20:39;101566.86;;;10.97;45.43
55550;BME280;41397;49.972;18.944;2023-03-15T10:23:47;101572.30;;;11.10;46.06
55550;BME280;41397;49.972;18.944;2023-03-15T10:27:05;101578.33;;;11.15;45.76
55550;BME280;41397;49.972;18.944;2023-03-15T10:30:31;101581.75;;;11.19;45.38
55550;BME280;41397;49.972;18.944;2023-03-15T10:33:35;101585.67;;;11.15;44.35
55550;BME280;41397;49.972;18.944;2023-03-15T10:36:46;101584.80;;;11.14;43.45
55550;BME280;41397;49.972;18.944;2023-03-15T10:39:55;101578.00;;;11.07;43.50
55550;BME280;41397;49.972;18.944;2023-03-15T10:43:23;101578.33;;;11.15;43.79
55550;BME280;41397;49.972;18.944;2023-03-15T10:46:26;101592.57;;;11.20;44.24
55550;BME280;41397;49.972;18.944;2023-03-15T10:49:38;101587.96;;;11.21;44.34
55550;BME280;41397;49.972;18.944;2023-03-15T10:52:42;101588.41;;;11.27;44.56
55550;BME280;41397;49.972;18.944;2023-03-15T10:55:47;101584.36;;;11.33;44.41
55550;BME280;41397;49.972;18.944;2023-03-15T10:58:51;101587.51;;;11.40;44.55
55550;BME280;41397;49.972;18.944;2023-03-15T11:05:15;101594.30;;;11.47;43.00
55550;BME280;41397;49.972;18.944;2023-03-15T11:08:42;101590.16;;;11.41;42.16
55550;BME280;41397;49.972;18.944;2023-03-15T11:11:53;101588.60;;;11.50;42.64
55550;BME280;41397;49.972;18.944;2023-03-15T11:15:13;101595.73;;;11.40;42.82
55550;BME280;41397;49.972;18.944;2023-03-15T11:18:18;101586.88;;;11.36;42.57
55550;BME280;41397;49.972;18.944;2023-03-15T11:21:24;101580.30;;;11.26;42.13
55550;BME280;41397;49.972;18.944;2023-03-15T11:24:29;101579.75;;;11.33;42.33
55550;BME280;41397;49.972;18.944;2023-03-15T11:27:30;101576.55;;;11.52;43.16
55550;BME280;41397;49.972;18.944;2023-03-15T11:30:32;101581.02;;;11.53;42.96
55550;BME280;41397;49.972;18.944;2023-03-15T11:33:47;101580.01;;;11.67;42.87
55550;BME280;41397;49.972;18.944;2023-03-15T11:36:53;101586.47;;;11.79;43.15
55550;BME280;41397;49.972;18.944;2023-03-15T11:40:03;101584.31;;;11.59;43.41
55550;BME280;41397;49.972;18.944;2023-03-15T11:57:03;101578.02;;;11.82;41.72
55550;BME280;41397;49.972;18.944;2023-03-15T12:06:57;101575.71;;;11.89;41.39
55550;BME280;41397;49.972;18.944;2023-03-15T12:13:25;101577.36;;;12.15;42.26
55550;BME280;41397;49.972;18.944;2023-03-15T12:26:47;101581.21;;;12.37;41.98
55550;BME280;41397;49.972;18.944;2023-03-15T12:30:02;101579.30;;;12.26;41.70
55550;BME280;41397;49.972;18.944;2023-03-15T12:33:22;101585.30;;;12.07;42.48
55550;BME280;41397;49.972;18.944;2023-03-15T12:46:55;101603.25;;;11.87;42.54
55550;BME280;41397;49.972;18.944;2023-03-15T12:53:55;101607.63;;;11.64;42.95
55550;BME280;41397;49.972;18.944;2023-03-15T13:00:52;101618.48;;;11.78;43.23
55550;BME280;41397;49.972;18.944;2023-03-15T13:14:31;101618.17;;;11.70;42.39
55550;BME280;41397;49.972;18.944;2023-03-15T13:21:17;101625.48;;;11.70;41.89
55550;BME280;41397;49.972;18.944;2023-03-15T13:24:34;101622.52;;;11.73;41.31
55550;BME280;41397;49.972;18.944;2023-03-15T13:33:56;101641.91;;;11.83;41.60
55550;BME280;41397;49.972;18.944;2023-03-15T13:40:44;101641.05;;;11.82;41.42
55550;BME280;41397;49.972;18.944;2023-03-15T14:05:09;101677.89;;;11.91;40.66
55550;BME280;41397;49.972;18.944;2023-03-15T14:08:20;101678.66;;;11.93;41.41
55550;BME280;41397;49.972;18.944;2023-03-15T14:11:39;101676.69;;;11.95;41.37
55550;BME280;41397;49.972;18.944;2023-03-15T14:15:12;101681.18;;;11.96;41.54
55550;BME280;41397;49.972;18.944;2023-03-15T14:22:11;101665.73;;;11.95;41.47
55550;BME280;41397;49.972;18.944;2023-03-15T14:25:33;101678.66;;;11.93;41.45
55550;BME280;41397;49.972;18.944;2023-03-15T14:32:03;101671.97;;;11.71;41.66
55550;BME280;41397;49.972;18.944;2023-03-15T14:38:23;101680.52;;;11.67;42.51
55550;BME280;41397;49.972;18.944;2023-03-15T14:41:34;101684.59;;;11.61;41.73
55550;BME280;41397;49.972;18.944;2023-03-15T14:44:38;101671.88;;;11.60;42.04
55550;BME280;41397;49.972;18.944;2023-03-15T14:47:46;101670.33;;;11.56;41.24
55550;BME280;41397;49.972;18.944;2023-03-15T14:50:49;101679.00;;;11.24;41.54
55550;BME280;41397;49.972;18.944;2023-03-15T14:53:54;101680.85;;;11.37;41.96
55550;BME280;41397;49.972;18.944;2023-03-15T14:57:05;101655.34;;;11.36;42.16
55550;BME280;41397;49.972;18.944;2023-03-15T15:03:33;101682.73;;;11.49;42.40
55550;BME280;41397;49.972;18.944;2023-03-15T15:06:55;101690.94;;;11.36;42.23
55550;BME280;41397;49.972;18.944;2023-03-15T15:13:27;101697.28;;;11.37;42.06
55550;BME280;41397;49.972;18.944;2023-03-15T15:20:08;101699.26;;;11.47;41.71
55550;BME280;41397;49.972;18.944;2023-03-15T15:23:22;101699.91;;;11.51;42.02
55550;BME280;41397;49.972;18.944;2023-03-15T15:29:53;101699.27;;;11.60;41.69
55550;BME280;41397;49.972;18.944;2023-03-15T15:33:06;101687.64;;;11.56;41.77
55550;BME280;41397;49.972;18.944;2023-03-15T15:43:04;101703.98;;;11.58;41.17
55550;BME280;41397;49.972;18.944;2023-03-15T15:46:11;101704.84;;;11.59;41.55
55550;BME280;41397;49.972;18.944;2023-03-15T15:52:51;101708.27;;;11.62;41.19
55550;BME280;41397;49.972;18.944;2023-03-15T15:55:56;101715.36;;;11.65;41.43
55550;BME280;41397;49.972;18.944;2023-03-15T15:58:59;101711.11;;;11.61;40.94
55550;BME280;41397;49.972;18.944;2023-03-15T16:02:01;101723.16;;;11.58;41.38
55550;BME280;41397;49.972;18.944;2023-03-15T16:05:03;101719.77;;;11.54;41.23
55550;BME280;41397;49.972;18.944;2023-03-15T16:08:05;101721.83;;;11.51;41.17
55550;BME280;41397;49.972;18.944;2023-03-15T16:11:09;101722.83;;;11.50;41.33
55550;BME280;41397;49.972;18.944;2023-03-15T16:14:12;101728.40;;;11.48;41.41
55550;BME280;41397;49.972;18.944;2023-03-15T16:17:20;101720.40;;;11.45;41.38
55550;BME280;41397;49.972;18.944;2023-03-15T16:31:30;101720.72;;;11.28;42.01
55550;BME280;41397;49.972;18.944;2023-03-15T16:35:04;101717.43;;;11.23;42.21
55550;BME280;41397;49.972;18.944;2023-03-15T16:38:33;101723.03;;;11.21;42.58
55550;BME280;41397;49.972;18.944;2023-03-15T16:42:34;101725.21;;;11.16;42.41
55550;BME280;41397;49.972;18.944;2023-03-15T16:45:57;101741.63;;;11.16;42.88
55550;BME280;41397;49.972;18.944;2023-03-15T16:49:32;101729.24;;;11.10;43.16
55550;BME280;41397;49.972;18.944;2023-03-15T16:56:14;101728.69;;;11.05;42.85
55550;BME280;41397;49.972;18.944;2023-03-15T16:59:20;101733.29;;;11.05;42.83
55550;BME280;41397;49.972;18.944;2023-03-15T17:06:12;101750.02;;;11.00;43.29
55550;BME280;41397;49.972;18.944;2023-03-15T17:09:21;101763.79;;;10.99;43.29
55550;BME280;41397;49.972;18.944;2023-03-15T17:12:26;101768.40;;;10.98;43.17
55550;BME280;41397;49.972;18.944;2023-03-15T17:15:29;101777.60;;;10.97;43.96
55550;BME280;41397;49.972;18.944;2023-03-15T17:18:34;101771.55;;;10.92;43.88
55550;BME280;41397;49.972;18.944;2023-03-15T17:21:37;101781.29;;;10.96;43.89
55550;BME280;41397;49.972;18.944;2023-03-15T17:31:44;101788.19;;;10.89;44.23
55550;BME280;41397;49.972;18.944;2023-03-15T17:35:02;101791.13;;;10.86;44.20
55550;BME280;41397;49.972;18.944;2023-03-15T17:38:10;101794.83;;;10.85;44.64
55550;BME280;41397;49.972;18.944;2023-03-15T17:48:23;101800.80;;;10.77;45.25
55550;BME280;41397;49.972;18.944;2023-03-15T17:55:14;101818.63;;;10.70;45.17
55550;BME280;41397;49.972;18.944;2023-03-15T17:58:53;101816.98;;;10.68;45.59
55550;BME280;41397;49.972;18.944;2023-03-15T18:05:48;101815.40;;;10.63;45.95
55550;BME280;41397;49.972;18.944;2023-03-15T19:14:15;101836.98;;;9.82;48.14
55550;BME280;41397;49.972;18.944;2023-03-15T19:21:00;101846.34;;;9.78;49.03
55550;BME280;41397;49.972;18.944;2023-03-15T19:24:10;101854.52;;;9.78;48.88
55550;BME280;41397;49.972;18.944;2023-03-15T19:30:52;101857.45;;;9.75;48.79
55550;BME280;41397;49.972;18.944;2023-03-15T19:34:08;101861.05;;;9.75;48.77
55550;BME280;41397;49.972;18.944;2023-03-15T19:44:20;101866.03;;;9.69;49.44
55550;BME280;41397;49.972;18.944;2023-03-15T19:48:02;101879.77;;;9.67;49.73
55550;BME280;41397;49.972;18.944;2023-03-15T19:51:19;101883.48;;;9.66;50.04
55550;BME280;41397;49.972;18.944;2023-03-15T20:19:01;101912.35;;;9.70;50.75
55550;BME280;41397;49.972;18.944;2023-03-15T20:22:13;101910.50;;;9.71;50.93
55550;BME280;41397;49.972;18.944;2023-03-15T20:28:55;101924.96;;;9.73;50.62
55550;BME280;41397;49.972;18.944;2023-03-15T20:32:02;101925.06;;;9.71;50.31
55550;BME280;41397;49.972;18.944;2023-03-15T20:35:19;101939.66;;;9.70;50.39
55550;BME280;41397;49.972;18.944;2023-03-15T20:45:38;101940.75;;;9.52;50.89
55550;BME280;41397;49.972;18.944;2023-03-15T20:52:42;101941.66;;;9.52;50.46
55550;BME280;41397;49.972;18.944;2023-03-15T20:59:29;101946.13;;;9.53;50.11
55550;BME280;41397;49.972;18.944;2023-03-15T21:02:34;101951.52;;;9.55;50.36
55550;BME280;41397;49.972;18.944;2023-03-15T21:09:00;101960.48;;;9.57;50.01
55550;BME280;41397;49.972;18.944;2023-03-15T21:12:03;101966.85;;;9.58;49.81
55550;BME280;41397;49.972;18.944;2023-03-15T21:15:05;101966.94;;;9.56;49.47
55550;BME280;41397;49.972;18.944;2023-03-15T21:18:06;101980.59;;;9.56;49.62
55550;BME280;41397;49.972;18.944;2023-03-15T21:21:18;101976.98;;;9.55;49.50
55550;BME280;41397;49.972;18.944;2023-03-15T21:24:32;101982.63;;;9.52;49.35
55550;BME280;41397;49.972;18.944;2023-03-15T21:27:36;101971.96;;;9.48;49.22
55550;BME280;41397;49.972;18.944;2023-03-15T21:30:37;101978.48;;;9.45;49.48
55550;BME280;41397;49.972;18.944;2023-03-15T21:33:39;101984.12;;;9.42;49.78
55550;BME280;41397;49.972;18.944;2023-03-15T21:40:12;101977.42;;;9.32;49.58
55550;BME280;41397;49.972;18.944;2023-03-15T21:50:15;101997.87;;;9.25;50.17
55550;BME280;41397;49.972;18.944;2023-03-15T21:53:16;102000.75;;;9.22;50.16
55550;BME280;41397;49.972;18.944;2023-03-15T21:59:43;102004.81;;;9.15;50.28
55550;BME280;41397;49.972;18.944;2023-03-15T22:02:50;102008.66;;;9.10;50.50
55550;BME280;41397;49.972;18.944;2023-03-15T22:05:53;102014.05;;;9.12;50.56
55550;BME280;41397;49.972;18.944;2023-03-15T22:08:55;102016.95;;;9.09;50.48